ADDS METAR Data INFO
IDs: Format: Raw Decoded Include TAF

Data at: 0920 UTC 13 Dec 2017

KFKN 130915Z AUTO 26003KT 10SM CLR M04/M14 A2985 RMK AO2 T10431142
KFKN 130855Z AUTO 23003KT 10SM CLR M04/M15 A2984 RMK AO2 T10401146
KFKN 130835Z AUTO 26003KT 10SM CLR M04/M14 A2984 RMK AO2 T10441139
KFKN 130815Z AUTO 29003KT 10SM CLR M04/M15 A2984 RMK AO2 T10411146
KFKN 130755Z AUTO 27004KT 10SM CLR M04/M15 A2983 RMK AO2 T10411147
KFKN 130735Z AUTO 30004KT 10SM CLR M03/M15 A2983 RMK AO2 T10311152
KFKN 130715Z AUTO 31004KT 10SM CLR M03/M15 A2982 RMK AO2 T10301153
KFKN 130655Z AUTO 31007KT 10SM CLR M03/M15 A2982 RMK AO2 T10281153
KFKN 130635Z AUTO 31006KT 10SM CLR M02/M15 A2981 RMK AO2 T10251155
KFKN 130615Z AUTO 31008G14KT 10SM CLR M02/M15 A2980 RMK AO2 T10221155
KFKN 130555Z AUTO 31012G15KT 10SM CLR M02/M15 A2979 RMK AO2 T10201154 10074 21020
KFKN 130535Z AUTO 31013G26KT 10SM CLR M02/M15 A2978 RMK AO2 T10161153
KFKN 130515Z AUTO 32014G22KT 10SM SCT065 M01/M13 A2978 RMK AO2 T10111133
KFKN 130455Z AUTO 31015G23KT 10SM BKN065 00/M13 A2977 RMK AO2 T10051132 401071006
KFKN 130435Z AUTO 29012G20KT 10SM BKN055 00/M13 A2976 RMK AO2 T10021129
KFKN 130415Z AUTO 29012G20KT 10SM BKN055 00/M13 A2975 RMK AO2 LTG DSNT E T00001131
KFKN 130355Z AUTO 28014G18KT 10SM CLR 00/M14 A2974 RMK AO2 T00001138
KFKN 130335Z AUTO 29016G23KT 10SM CLR 01/M13 A2973 RMK AO2 LTG DSNT SE T00051130
KFKN 130320Z AUTO 30015G26KT 10SM CLR 01/M12 A2973 RMK AO2 LTG DSNT SE T00101117
KFKN 130255Z AUTO 29019G27KT 10SM SCT070 SCT075 BKN090 02/M11 A2971 RMK AO2 T00171113
KFKN 130235Z AUTO 29020G26KT 10SM SCT049 BKN075 OVC095 03/M09 A2969 RMK AO2 T00271092
KFKN 130215Z AUTO 29015G23KT 10SM SCT047 BKN060 OVC075 04/M06 A2968 RMK AO2 T00361058
KFKN 130155Z AUTO 31012G19KT 10SM SCT049 BKN075 OVC085 04/M04 A2968 RMK AO2 T00381041
KFKN 130135Z AUTO 30011G17KT 10SM SCT075 BKN085 OVC110 04/M03 A2967 RMK AO2 LTG DSNT SE T00361033
KFKN 130110Z AUTO 33013G17KT 10SM SCT032 BKN075 OVC085 04/M02 A2965 RMK AO2 T00351019
KFKN 130055Z AUTO 32015G30KT 10SM SCT037 BKN050 OVC075 05/M01 A2965 RMK AO2 LTG DSNT E AND SE T00451011
KFKN 130035Z AUTO 30018G31KT 10SM BKN055 OVC065 07/M04 A2963 RMK AO2 T00661039
KFKN 130015Z AUTO 28014G22KT 10SM BKN060 BKN075 OVC090 07/M04 A2962 RMK AO2 LTG DSNT SE T00711041
KFKN 122355Z AUTO 29013G23KT 10SM SCT085 OVC095 08/M03 A2961 RMK AO2 T00751034 10107 20075
KFKN 122335Z AUTO 28009G17KT 10SM OVC095 08/M03 A2960 RMK AO2 LTG DSNT SE T00781028
KFKN 122315Z AUTO 28011G16KT 10SM OVC095 08/M02 A2959 RMK AO2 LTG DSNT S T00791024
KFKN 122255Z AUTO 28010G15KT 10SM OVC085 08/M02 A2959 RMK AO2 T00801019
KFKN 122235Z AUTO 29008G15KT 10SM OVC085 08/M01 A2958 RMK AO2 T00821012
KFKN 122215Z AUTO 27014G19KT 10SM OVC085 09/00 A2958 RMK AO2 LTG DSNT SE T00881001
KFKN 122155Z AUTO 28007KT 10SM SCT050 BKN080 OVC085 09/02 A2957 RMK AO2 T00870021
KFKN 122135Z AUTO 25003KT 10SM OVC060 09/02 A2957 RMK AO2 LTG DSNT S T00900018
KFKN 122115Z AUTO 23004KT 10SM BKN060 OVC090 09/02 A2957 RMK AO2 LTG DSNT S T00930016
KFKN 122055Z AUTO 24003KT 10SM SCT070 OVC090 10/02 A2957 RMK AO2 LTG DSNT E AND S T00950016
KFKN 122035Z AUTO 25003KT 10SM OVC090 10/02 A2957 RMK AO2 LTG DSNT SE AND S T00970015
KFKN 122015Z AUTO 26004KT 10SM SCT055 BKN075 OVC090 10/01 A2957 RMK AO2 T00990011
KFKN 121955Z AUTO 27008KT 10SM BKN055 OVC070 10/01 A2956 RMK AO2 T00970010
KFKN 121935Z AUTO 27006G14KT 10SM SCT075 BKN095 OVC120 10/01 A2957 RMK AO2 T01000010
KFKN 121915Z AUTO 28010KT 10SM OVC110 11/01 A2957 RMK AO2 T01050013
KFKN 121855Z AUTO 28010KT 10SM SCT110 11/01 A2957 RMK AO2 T01050014
KFKN 121835Z AUTO 27009KT 10SM CLR 11/02 A2957 RMK AO2 T01050017
KFKN 121815Z AUTO 27010KT 10SM CLR 11/02 A2957 RMK AO2 T01050021
KFKN 121755Z AUTO 26009G16KT 10SM CLR 11/02 A2958 RMK AO2 T01060023 10106 20033
KFKN 121735Z AUTO 25008KT 10SM CLR 10/02 A2959 RMK AO2 T01010022
KFKN 121715Z AUTO 26006KT 10SM CLR 10/03 A2960 RMK AO2 T00960028
KFKN 121655Z AUTO 24004KT 10SM CLR 09/02 A2961 RMK AO2 T00850024
KFKN 121635Z AUTO 25006KT 10SM CLR 09/02 A2962 RMK AO2 T00850024
KFKN 121615Z AUTO 23005KT 10SM CLR 08/02 A2963 RMK AO2 T00810024
KFKN 121555Z AUTO 24008G14KT 10SM CLR 08/02 A2964 RMK AO2 T00790021
KFKN 121535Z AUTO 24005KT 10SM CLR 08/02 A2966 RMK AO2 T00770024
KFKN 121515Z AUTO 23007KT 10SM CLR 07/02 A2966 RMK AO2 LTG DSNT E T00740021
KFKN 121455Z AUTO 23007KT 10SM CLR 07/02 A2967 RMK AO2 T00730020
KFKN 121435Z AUTO 22007KT 10SM CLR 07/02 A2967 RMK AO2 T00710021
KFKN 121415Z AUTO 22008G15KT 10SM CLR 06/02 A2968 RMK AO2 T00610015
KFKN 121355Z AUTO 22007KT 190V260 10SM CLR 06/01 A2968 RMK AO2 T00550014
KFKN 121335Z AUTO 20007KT 10SM CLR 05/01 A2969 RMK AO2 T00480013
KFKN 121315Z AUTO 20008KT 10SM CLR 05/01 A2970 RMK AO2 T00450010
KFKN 121255Z AUTO 21007KT 10SM CLR 04/01 A2970 RMK AO2 T00430007
KFKN 121235Z AUTO 18007KT 10SM CLR 04/01 A2971 RMK AO2 T00380005
KFKN 121215Z AUTO 19005KT 10SM CLR 04/00 A2972 RMK AO2 T00350003
KFKN 121155Z AUTO 19006KT 10SM CLR 04/00 A2972 RMK AO2 T00350000 10038 20017
KFKN 121135Z AUTO 19008KT 10SM CLR 04/00 A2973 RMK AO2 T00370000
KFKN 121115Z AUTO 18008KT 10SM CLR 04/00 A2972 RMK AO2 T00350000
KFKN 121055Z AUTO 18009KT 10SM CLR 03/00 A2973 RMK AO2 T00321002
KFKN 121035Z AUTO 19007KT 10SM CLR 03/00 A2974 RMK AO2 T00281005
KFKN 121015Z AUTO 18010KT 10SM CLR 03/M01 A2975 RMK AO2 T00311006
KFKN 120955Z AUTO 18008KT 10SM CLR 03/00 A2977 RMK AO2 T00321005
KFKN 120935Z AUTO 18006KT 10SM CLR 03/M01 A2977 RMK AO2 T00301007
KFKN 120915Z AUTO 17007KT 10SM CLR 03/M01 A2979 RMK AO2 T00261007
KFKN 120855Z AUTO 17006KT 10SM CLR 03/M01 A2981 RMK AO2 T00261010
KFKN 120835Z AUTO 17007KT 10SM CLR 02/M01 A2981 RMK AO2 T00191008
KFKN 120815Z AUTO 16007KT 10SM CLR 02/M01 A2983 RMK AO2 T00171010
KFKN 120755Z AUTO 16005KT 10SM BKN120 02/M01 A2985 RMK AO2 T00221010
KFKN 120735Z AUTO 18005KT 10SM BKN120 03/M01 A2986 RMK AO2 T00301010
KFKN 120715Z AUTO 19005KT 10SM SCT120 03/M01 A2986 RMK AO2 T00321008
KFKN 120655Z AUTO 18006KT 10SM CLR 03/M01 A2986 RMK AO2 T00301007
KFKN 120635Z AUTO 16007KT 10SM CLR 02/00 A2987 RMK AO2 T00221001
KFKN 120615Z AUTO 17006KT 10SM CLR 02/00 A2989 RMK AO2 T00241002
KFKN 120555Z AUTO 17004KT 10SM CLR 03/00 A2990 RMK AO2 T00251004 10034 20004
KFKN 120535Z AUTO 16005KT 10SM CLR 02/00 A2991 RMK AO2 T00211003
KFKN 120515Z AUTO 17005KT 10SM CLR 03/00 A2993 RMK AO2 T00251002
KFKN 120455Z AUTO 16005KT 10SM CLR 03/00 A2994 RMK AO2 T00270000 401021030
KFKN 120435Z AUTO 17004KT 10SM CLR 03/00 A2995 RMK AO2 T00290000
KFKN 120415Z AUTO 18004KT 10SM CLR 03/00 A2996 RMK AO2 T00300000
KFKN 120355Z AUTO 18003KT 10SM CLR 03/00 A2997 RMK AO2 T00280000
KFKN 120335Z AUTO 19003KT 10SM CLR 03/00 A2998 RMK AO2 T00271003
KFKN 120315Z AUTO 17003KT 10SM CLR 03/00 A2998 RMK AO2 T00301005
KFKN 120255Z AUTO 17005KT 10SM CLR 03/00 A2998 RMK AO2 T00271005
KFKN 120235Z AUTO 16005KT 10SM CLR 03/M01 A2998 RMK AO2 T00261006
KFKN 120215Z AUTO 16005KT 10SM CLR 03/M01 A2998 RMK AO2 T00271008
KFKN 120155Z AUTO 16005KT 10SM CLR 03/M01 A2999 RMK AO2 T00281006
KFKN 120135Z AUTO 00000KT 10SM CLR 00/M01 A3000 RMK AO2 T00041009
KFKN 120115Z AUTO 00000KT 10SM CLR 01/M01 A3001 RMK AO2 T00061012
KFKN 120055Z AUTO 00000KT 10SM CLR 01/00 A3001 RMK AO2 T00121003
KFKN 120035Z AUTO 00000KT 10SM CLR 01/00 A3001 RMK AO2 T00101002
KFKN 120015Z AUTO 00000KT 10SM CLR 01/00 A3001 RMK AO2 T00071001
KFKN 112355Z AUTO 00000KT 10SM CLR 01/00 A3001 RMK AO2 T00111003 10102 20008
KFKN 112335Z AUTO 00000KT 10SM CLR 02/00 A3002 RMK AO2 T00170000
KFKN 112315Z AUTO 00000KT 10SM CLR 02/00 A3002 RMK AO2 T00191002
KFKN 112255Z AUTO 00000KT 10SM CLR 02/00 A3002 RMK AO2 T00240000
KFKN 112235Z AUTO 00000KT 10SM CLR 03/00 A3002 RMK AO2 T00260001
KFKN 112215Z AUTO 07004KT 10SM CLR 04/00 A3002 RMK AO2 T00380002
KFKN 112155Z AUTO 00000KT 10SM CLR 05/00 A3003 RMK AO2 T00491004
KFKN 112135Z AUTO 15003KT 10SM CLR 08/M02 A3003 RMK AO2 T00781019